weather.gov     
National Weather Service

Terminal Aerodrome Forecast
NWS Homepage
This page is being discontinued on March 12, 2014.
The same data is available at this site. Please update your bookmarks.
Thank you, and we apologize for the inconvenience.
Please send an email to SR-SRH.Webmaster@noaa.gov with any concerns.


Current Version
Previous Version:    01  02  03  04  05  06  07  08  09  10  11  12  13  14  15  16  17  18  19  20  21  22  23  24  25  26  27  28  29  30  
   31  32  33  34  35  36  37  
[Printable]
012
FTUS43 KOAX 231400 AAA
TAFLNK
TAF AMD
KLNK 231400Z 2314/2412 15014G22KT P6SM VCTS SCT050CB BKN080
      WS020/17050KT
      TEMPO 2314/2315 -SHRA SCT030 BKN045
     FM231500 16026G34KT P6SM BKN120
     FM240100 15014G24KT P6SM OVC100
      TEMPO 2403/2407 VRB20G30KT 3SM TSRA BKN030CB
     FM240700 34018KT 5SM -SHRA OVC025=


012
FTUS43 KOAX 231400 AAA
TAFLNK
TAF AMD
KLNK 231400Z 2314/2412 15014G22KT P6SM VCTS SCT050CB BKN080
      WS020/17050KT
      TEMPO 2314/2315 -SHRA SCT030 BKN045
     FM231500 16026G34KT P6SM BKN120
     FM240100 15014G24KT P6SM OVC100
      TEMPO 2403/2407 VRB20G30KT 3SM TSRA BKN030CB
     FM240700 34018KT 5SM -SHRA OVC025=




U.S. Dept. of Commerce
NOAA National Weather Service
1325 East West Highway
Silver Spring, MD 20910
E-mail: w-nws.webmaster@noaa.gov
Page last modified: May 16, 2007
NATIONAL WEATHER SERVICE: for Safety, for Work, for Fun - FOR LIFE